sensor_id;sensor_type;location;lat;lon;timestamp;temperature;humidity
46231;DHT22;31949;51.404;-0.038;2022-08-18T00:02:24;19.90;99.90
46231;DHT22;31949;51.404;-0.038;2022-08-18T00:04:57;19.90;99.90
46231;DHT22;31949;51.404;-0.038;2022-08-18T00:07:29;19.80;99.90
46231;DHT22;31949;51.404;-0.038;2022-08-18T00:09:59;19.80;99.90
46231;DHT22;31949;51.404;-0.038;2022-08-18T00:12:34;19.80;99.90
46231;DHT22;31949;51.404;-0.038;2022-08-18T00:15:10;19.90;99.90
46231;DHT22;31949;51.404;-0.038;2022-08-18T00:17:44;19.90;99.90
46231;DHT22;31949;51.404;-0.038;2022-08-18T00:20:18;19.90;99.90
46231;DHT22;31949;51.404;-0.038;2022-08-18T00:22:46;19.90;99.90
46231;DHT22;31949;51.404;-0.038;2022-08-18T00:25:15;19.90;99.90
46231;DHT22;31949;51.404;-0.038;2022-08-18T00:27:42;19.80;99.90
46231;DHT22;31949;51.404;-0.038;2022-08-18T00:30:16;19.80;99.90
46231;DHT22;31949;51.404;-0.038;2022-08-18T00:32:48;19.80;99.90
46231;DHT22;31949;51.404;-0.038;2022-08-18T00:35:18;19.90;99.90
46231;DHT22;31949;51.404;-0.038;2022-08-18T00:37:47;19.80;99.90
46231;DHT22;31949;51.404;-0.038;2022-08-18T00:40:19;19.80;99.90
46231;DHT22;31949;51.404;-0.038;2022-08-18T00:42:51;19.80;99.90
46231;DHT22;31949;51.404;-0.038;2022-08-18T00:45:24;19.80;99.90
46231;DHT22;31949;51.404;-0.038;2022-08-18T00:47:53;19.80;99.90
46231;DHT22;31949;51.404;-0.038;2022-08-18T00:50:26;19.80;99.90
46231;DHT22;31949;51.404;-0.038;2022-08-18T00:53:00;19.80;99.90
46231;DHT22;31949;51.404;-0.038;2022-08-18T00:55:29;19.80;99.90
46231;DHT22;31949;51.404;-0.038;2022-08-18T00:58:06;19.80;99.90
46231;DHT22;31949;51.404;-0.038;2022-08-18T01:00:35;19.80;99.90
46231;DHT22;31949;51.404;-0.038;2022-08-18T01:03:07;19.90;99.90
46231;DHT22;31949;51.404;-0.038;2022-08-18T01:05:41;19.80;99.90
46231;DHT22;31949;51.404;-0.038;2022-08-18T01:08:12;19.80;99.90
46231;DHT22;31949;51.404;-0.038;2022-08-18T01:10:42;19.70;99.90
46231;DHT22;31949;51.404;-0.038;2022-08-18T01:13:10;19.70;99.90
46231;DHT22;31949;51.404;-0.038;2022-08-18T01:15:37;19.70;99.90
46231;DHT22;31949;51.404;-0.038;2022-08-18T01:18:12;19.70;99.90
46231;DHT22;31949;51.404;-0.038;2022-08-18T01:21:19;19.70;99.90
46231;DHT22;31949;51.404;-0.038;2022-08-18T01:24:08;19.70;99.90
46231;DHT22;31949;51.404;-0.038;2022-08-18T01:26:39;19.70;99.90
46231;DHT22;31949;51.404;-0.038;2022-08-18T01:29:11;19.70;99.90
46231;DHT22;31949;51.404;-0.038;2022-08-18T01:31:48;19.70;99.90
46231;DHT22;31949;51.404;-0.038;2022-08-18T01:34:23;19.60;99.90
46231;DHT22;31949;51.404;-0.038;2022-08-18T01:36:54;19.60;99.90
46231;DHT22;31949;51.404;-0.038;2022-08-18T01:39:22;19.60;99.90
46231;DHT22;31949;51.404;-0.038;2022-08-18T01:42:11;19.50;99.90
46231;DHT22;31949;51.404;-0.038;2022-08-18T01:44:39;19.50;99.90
46231;DHT22;31949;51.404;-0.038;2022-08-18T01:47:11;19.50;99.90
46231;DHT22;31949;51.404;-0.038;2022-08-18T01:49:39;19.50;99.90
46231;DHT22;31949;51.404;-0.038;2022-08-18T01:52:19;19.50;99.90
46231;DHT22;31949;51.404;-0.038;2022-08-18T01:54:51;19.50;99.90
46231;DHT22;31949;51.404;-0.038;2022-08-18T01:57:20;19.40;99.90
46231;DHT22;31949;51.404;-0.038;2022-08-18T01:59:47;19.40;99.90
46231;DHT22;31949;51.404;-0.038;2022-08-18T02:02:19;19.40;99.90
46231;DHT22;31949;51.404;-0.038;2022-08-18T02:04:58;19.50;99.90
46231;DHT22;31949;51.404;-0.038;2022-08-18T02:07:27;19.50;99.90
46231;DHT22;31949;51.404;-0.038;2022-08-18T02:10:04;19.50;99.90
46231;DHT22;31949;51.404;-0.038;2022-08-18T02:12:39;19.40;99.90
46231;DHT22;31949;51.404;-0.038;2022-08-18T02:15:07;19.50;99.90
46231;DHT22;31949;51.404;-0.038;2022-08-18T02:17:40;19.50;99.90
46231;DHT22;31949;51.404;-0.038;2022-08-18T02:20:12;19.50;99.90
46231;DHT22;31949;51.404;-0.038;2022-08-18T02:22:41;19.50;99.90
46231;DHT22;31949;51.404;-0.038;2022-08-18T02:25:09;19.50;99.90
46231;DHT22;31949;51.404;-0.038;2022-08-18T02:27:37;19.50;99.90
46231;DHT22;31949;51.404;-0.038;2022-08-18T02:30:07;19.50;99.90
46231;DHT22;31949;51.404;-0.038;2022-08-18T02:32:41;19.50;99.90
46231;DHT22;31949;51.404;-0.038;2022-08-18T02:35:09;19.50;99.90
46231;DHT22;31949;51.404;-0.038;2022-08-18T02:37:39;19.40;99.90
46231;DHT22;31949;51.404;-0.038;2022-08-18T02:40:09;19.50;99.90
46231;DHT22;31949;51.404;-0.038;2022-08-18T02:42:43;19.50;99.90
46231;DHT22;31949;51.404;-0.038;2022-08-18T02:45:14;19.50;99.90
46231;DHT22;31949;51.404;-0.038;2022-08-18T02:47:41;19.50;99.90
46231;DHT22;31949;51.404;-0.038;2022-08-18T02:50:11;19.50;99.90
46231;DHT22;31949;51.404;-0.038;2022-08-18T02:52:48;19.50;99.90
46231;DHT22;31949;51.404;-0.038;2022-08-18T02:55:15;19.50;99.90
46231;DHT22;31949;51.404;-0.038;2022-08-18T02:57:47;19.50;99.90
46231;DHT22;31949;51.404;-0.038;2022-08-18T03:00:16;19.50;99.90
46231;DHT22;31949;51.404;-0.038;2022-08-18T03:02:51;19.50;99.90
46231;DHT22;31949;51.404;-0.038;2022-08-18T03:05:19;19.50;99.90
46231;DHT22;31949;51.404;-0.038;2022-08-18T03:07:46;19.50;99.90
46231;DHT22;31949;51.404;-0.038;2022-08-18T03:10:14;19.50;99.90
46231;DHT22;31949;51.404;-0.038;2022-08-18T03:13:03;19.50;99.90
46231;DHT22;31949;51.404;-0.038;2022-08-18T03:15:31;19.50;99.90
46231;DHT22;31949;51.404;-0.038;2022-08-18T03:17:58;19.50;99.90
46231;DHT22;31949;51.404;-0.038;2022-08-18T03:20:27;19.60;99.90
46231;DHT22;31949;51.404;-0.038;2022-08-18T03:22:57;19.60;99.90
46231;DHT22;31949;51.404;-0.038;2022-08-18T03:25:24;19.60;99.90
46231;DHT22;31949;51.404;-0.038;2022-08-18T03:27:51;19.50;99.90
46231;DHT22;31949;51.404;-0.038;2022-08-18T03:30:19;19.50;99.90
46231;DHT22;31949;51.404;-0.038;2022-08-18T03:32:47;19.50;99.90
46231;DHT22;31949;51.404;-0.038;2022-08-18T03:35:14;19.50;99.90
46231;DHT22;31949;51.404;-0.038;2022-08-18T03:37:42;19.50;99.90
46231;DHT22;31949;51.404;-0.038;2022-08-18T03:40:10;19.60;99.90
46231;DHT22;31949;51.404;-0.038;2022-08-18T03:42:38;19.50;99.90
46231;DHT22;31949;51.404;-0.038;2022-08-18T03:45:08;19.60;99.90
46231;DHT22;31949;51.404;-0.038;2022-08-18T03:47:43;19.50;99.90
46231;DHT22;31949;51.404;-0.038;2022-08-18T03:50:12;19.60;99.90
46231;DHT22;31949;51.404;-0.038;2022-08-18T03:52:40;19.50;99.90
46231;DHT22;31949;51.404;-0.038;2022-08-18T03:55:08;19.60;99.90
46231;DHT22;31949;51.404;-0.038;2022-08-18T03:57:37;19.50;99.90
46231;DHT22;31949;51.404;-0.038;2022-08-18T04:00:09;19.60;99.90
46231;DHT22;31949;51.404;-0.038;2022-08-18T04:02:39;19.60;99.90
46231;DHT22;31949;51.404;-0.038;2022-08-18T04:05:06;19.50;99.90
46231;DHT22;31949;51.404;-0.038;2022-08-18T04:07:34;19.50;99.90
46231;DHT22;31949;51.404;-0.038;2022-08-18T04:10:03;19.50;99.90
46231;DHT22;31949;51.404;-0.038;2022-08-18T04:12:30;19.60;99.90
46231;DHT22;31949;51.404;-0.038;2022-08-18T04:14:57;19.50;99.90
46231;DHT22;31949;51.404;-0.038;2022-08-18T04:17:24;19.50;99.90
46231;DHT22;31949;51.404;-0.038;2022-08-18T04:19:53;19.50;99.90
46231;DHT22;31949;51.404;-0.038;2022-08-18T04:22:21;19.50;99.90
46231;DHT22;31949;51.404;-0.038;2022-08-18T04:24:49;19.40;99.90
46231;DHT22;31949;51.404;-0.038;2022-08-18T04:27:18;19.40;99.90
46231;DHT22;31949;51.404;-0.038;2022-08-18T04:29:46;19.40;99.90
46231;DHT22;31949;51.404;-0.038;2022-08-18T04:32:14;19.40;99.90
46231;DHT22;31949;51.404;-0.038;2022-08-18T04:34:41;19.40;99.90
46231;DHT22;31949;51.404;-0.038;2022-08-18T04:37:08;19.40;99.90
46231;DHT22;31949;51.404;-0.038;2022-08-18T04:39:36;19.40;99.90
46231;DHT22;31949;51.404;-0.038;2022-08-18T04:42:07;19.30;99.90
46231;DHT22;31949;51.404;-0.038;2022-08-18T04:44:35;19.30;99.90
46231;DHT22;31949;51.404;-0.038;2022-08-18T04:47:04;19.30;99.90
46231;DHT22;31949;51.404;-0.038;2022-08-18T04:49:32;19.30;99.90
46231;DHT22;31949;51.404;-0.038;2022-08-18T04:52:00;19.30;99.90
46231;DHT22;31949;51.404;-0.038;2022-08-18T04:55:06;19.30;99.90
46231;DHT22;31949;51.404;-0.038;2022-08-18T04:57:35;19.30;99.90
46231;DHT22;31949;51.404;-0.038;2022-08-18T05:00:04;19.30;99.90
46231;DHT22;31949;51.404;-0.038;2022-08-18T05:02:31;19.30;99.90
46231;DHT22;31949;51.404;-0.038;2022-08-18T05:04:59;19.30;99.90
46231;DHT22;31949;51.404;-0.038;2022-08-18T05:07:29;19.30;99.90
46231;DHT22;31949;51.404;-0.038;2022-08-18T05:10:00;19.30;99.90
46231;DHT22;31949;51.404;-0.038;2022-08-18T05:12:27;19.30;99.90
46231;DHT22;31949;51.404;-0.038;2022-08-18T05:14:55;19.30;99.90
46231;DHT22;31949;51.404;-0.038;2022-08-18T05:17:24;19.30;99.90
46231;DHT22;31949;51.404;-0.038;2022-08-18T05:19:58;19.30;99.90
46231;DHT22;31949;51.404;-0.038;2022-08-18T05:22:28;19.30;99.90
46231;DHT22;31949;51.404;-0.038;2022-08-18T05:24:57;19.30;99.90
46231;DHT22;31949;51.404;-0.038;2022-08-18T05:27:33;19.30;99.90
46231;DHT22;31949;51.404;-0.038;2022-08-18T05:30:02;19.30;99.90
46231;DHT22;31949;51.404;-0.038;2022-08-18T05:32:33;19.30;99.90
46231;DHT22;31949;51.404;-0.038;2022-08-18T05:35:25;19.40;99.90
46231;DHT22;31949;51.404;-0.038;2022-08-18T05:41:12;19.40;99.90
46231;DHT22;31949;51.404;-0.038;2022-08-18T05:43:43;19.40;99.90
46231;DHT22;31949;51.404;-0.038;2022-08-18T05:46:21;19.40;99.90
46231;DHT22;31949;51.404;-0.038;2022-08-18T05:48:51;19.50;99.90
46231;DHT22;31949;51.404;-0.038;2022-08-18T05:51:35;19.40;99.90
46231;DHT22;31949;51.404;-0.038;2022-08-18T05:54:05;19.50;99.90
46231;DHT22;31949;51.404;-0.038;2022-08-18T05:56:54;19.50;99.90
46231;DHT22;31949;51.404;-0.038;2022-08-18T05:59:33;19.50;99.90
46231;DHT22;31949;51.404;-0.038;2022-08-18T06:02:13;19.50;99.90
46231;DHT22;31949;51.404;-0.038;2022-08-18T06:04:49;19.50;99.90
46231;DHT22;31949;51.404;-0.038;2022-08-18T06:07:25;19.60;99.90
46231;DHT22;31949;51.404;-0.038;2022-08-18T06:09:59;19.60;99.90
46231;DHT22;31949;51.404;-0.038;2022-08-18T06:12:34;19.60;99.90
46231;DHT22;31949;51.404;-0.038;2022-08-18T06:15:15;19.60;99.90
46231;DHT22;31949;51.404;-0.038;2022-08-18T06:31:55;19.70;99.90
46231;DHT22;31949;51.404;-0.038;2022-08-18T06:37:20;19.70;99.90
46231;DHT22;31949;51.404;-0.038;2022-08-18T06:39:51;19.70;99.90
46231;DHT22;31949;51.404;-0.038;2022-08-18T06:42:22;19.80;99.90
46231;DHT22;31949;51.404;-0.038;2022-08-18T06:44:57;19.80;99.90
46231;DHT22;31949;51.404;-0.038;2022-08-18T06:50:24;19.90;99.90
46231;DHT22;31949;51.404;-0.038;2022-08-18T06:52:55;19.90;99.90
46231;DHT22;31949;51.404;-0.038;2022-08-18T06:55:42;19.90;99.90
46231;DHT22;31949;51.404;-0.038;2022-08-18T07:00:58;20.00;99.90
46231;DHT22;31949;51.404;-0.038;2022-08-18T07:06:07;20.00;99.90
46231;DHT22;31949;51.404;-0.038;2022-08-18T07:08:36;20.00;99.90
46231;DHT22;31949;51.404;-0.038;2022-08-18T07:13:49;20.10;99.90
46231;DHT22;31949;51.404;-0.038;2022-08-18T07:16:37;20.20;99.90
46231;DHT22;31949;51.404;-0.038;2022-08-18T07:19:28;20.20;99.90
46231;DHT22;31949;51.404;-0.038;2022-08-18T07:22:09;20.30;99.90
46231;DHT22;31949;51.404;-0.038;2022-08-18T07:24:46;20.40;99.90
46231;DHT22;31949;51.404;-0.038;2022-08-18T07:27:18;20.40;99.90
46231;DHT22;31949;51.404;-0.038;2022-08-18T07:35:29;20.70;99.90
46231;DHT22;31949;51.404;-0.038;2022-08-18T07:38:10;20.80;99.90
46231;DHT22;31949;51.404;-0.038;2022-08-18T07:41:22;20.70;99.90
46231;DHT22;31949;51.404;-0.038;2022-08-18T07:44:22;20.80;99.90
46231;DHT22;31949;51.404;-0.038;2022-08-18T07:47:11;20.90;99.90
46231;DHT22;31949;51.404;-0.038;2022-08-18T07:49:40;21.00;99.90
46231;DHT22;31949;51.404;-0.038;2022-08-18T07:52:31;21.10;99.90
46231;DHT22;31949;51.404;-0.038;2022-08-18T07:55:40;21.10;99.90
46231;DHT22;31949;51.404;-0.038;2022-08-18T07:58:25;21.00;99.90
46231;DHT22;31949;51.404;-0.038;2022-08-18T08:04:36;21.10;99.90
46231;DHT22;31949;51.404;-0.038;2022-08-18T08:07:11;21.10;99.90
46231;DHT22;31949;51.404;-0.038;2022-08-18T08:15:34;21.20;99.90
46231;DHT22;31949;51.404;-0.038;2022-08-18T08:18:17;21.30;99.90
46231;DHT22;31949;51.404;-0.038;2022-08-18T08:20:59;21.40;99.90
46231;DHT22;31949;51.404;-0.038;2022-08-18T08:29:28;21.90;99.90
46231;DHT22;31949;51.404;-0.038;2022-08-18T08:32:22;21.90;99.90
46231;DHT22;31949;51.404;-0.038;2022-08-18T08:35:07;22.00;99.90
46231;DHT22;31949;51.404;-0.038;2022-08-18T08:38:10;22.20;99.90
46231;DHT22;31949;51.404;-0.038;2022-08-18T08:41:06;22.50;99.90
46231;DHT22;31949;51.404;-0.038;2022-08-18T08:43:46;22.50;99.90
46231;DHT22;31949;51.404;-0.038;2022-08-18T08:46:29;22.70;99.90
46231;DHT22;31949;51.404;-0.038;2022-08-18T08:49:29;22.80;99.90
46231;DHT22;31949;51.404;-0.038;2022-08-18T08:52:13;23.00;99.90
46231;DHT22;31949;51.404;-0.038;2022-08-18T08:55:28;23.10;99.90
46231;DHT22;31949;51.404;-0.038;2022-08-18T08:58:21;23.20;99.90
46231;DHT22;31949;51.404;-0.038;2022-08-18T09:00:52;23.40;99.90
46231;DHT22;31949;51.404;-0.038;2022-08-18T09:06:16;23.70;99.90
46231;DHT22;31949;51.404;-0.038;2022-08-18T09:12:03;24.10;99.90
46231;DHT22;31949;51.404;-0.038;2022-08-18T09:22:47;23.50;99.90
46231;DHT22;31949;51.404;-0.038;2022-08-18T09:41:54;23.00;99.90
46231;DHT22;31949;51.404;-0.038;2022-08-18T09:49:55;22.80;99.90
46231;DHT22;31949;51.404;-0.038;2022-08-18T09:55:06;22.80;99.90
46231;DHT22;31949;51.404;-0.038;2022-08-18T09:58:13;22.80;99.90
46231;DHT22;31949;51.404;-0.038;2022-08-18T10:00:43;23.00;99.90
46231;DHT22;31949;51.404;-0.038;2022-08-18T10:03:15;23.10;99.90
46231;DHT22;31949;51.404;-0.038;2022-08-18T10:06:11;23.10;99.90
46231;DHT22;31949;51.404;-0.038;2022-08-18T10:08:54;23.20;99.90
46231;DHT22;31949;51.404;-0.038;2022-08-18T10:11:39;23.20;99.90
46231;DHT22;31949;51.404;-0.038;2022-08-18T10:22:53;23.00;99.90
46231;DHT22;31949;51.404;-0.038;2022-08-18T10:28:03;23.00;99.90
46231;DHT22;31949;51.404;-0.038;2022-08-18T10:33:57;22.90;99.90
46231;DHT22;31949;51.404;-0.038;2022-08-18T10:37:03;23.00;99.90
46231;DHT22;31949;51.404;-0.038;2022-08-18T10:39:51;23.20;99.90
46231;DHT22;31949;51.404;-0.038;2022-08-18T10:50:42;23.60;99.90
46231;DHT22;31949;51.404;-0.038;2022-08-18T10:54:18;23.80;99.90
46231;DHT22;31949;51.404;-0.038;2022-08-18T11:05:19;24.30;99.90
46231;DHT22;31949;51.404;-0.038;2022-08-18T11:07:49;24.30;99.90
46231;DHT22;31949;51.404;-0.038;2022-08-18T11:10:45;24.50;99.90
46231;DHT22;31949;51.404;-0.038;2022-08-18T11:13:53;24.70;99.90
46231;DHT22;31949;51.404;-0.038;2022-08-18T11:19:07;24.90;99.90
46231;DHT22;31949;51.404;-0.038;2022-08-18T11:24:29;25.20;99.90
46231;DHT22;31949;51.404;-0.038;2022-08-18T11:29:41;25.60;99.90
46231;DHT22;31949;51.404;-0.038;2022-08-18T11:34:52;25.70;99.90
46231;DHT22;31949;51.404;-0.038;2022-08-18T11:37:46;25.70;99.70
46231;DHT22;31949;51.404;-0.038;2022-08-18T11:43:17;25.30;99.80
46231;DHT22;31949;51.404;-0.038;2022-08-18T11:45:52;25.10;99.90
46231;DHT22;31949;51.404;-0.038;2022-08-18T11:48:48;25.00;99.90
46231;DHT22;31949;51.404;-0.038;2022-08-18T11:51:30;24.50;99.90
46231;DHT22;31949;51.404;-0.038;2022-08-18T11:54:19;24.70;99.90
46231;DHT22;31949;51.404;-0.038;2022-08-18T11:56:50;25.00;99.90
46231;DHT22;31949;51.404;-0.038;2022-08-18T12:02:18;25.30;99.90
46231;DHT22;31949;51.404;-0.038;2022-08-18T12:04:55;25.40;99.90
46231;DHT22;31949;51.404;-0.038;2022-08-18T12:07:34;25.40;99.90
46231;DHT22;31949;51.404;-0.038;2022-08-18T12:10:19;25.40;99.90
46231;DHT22;31949;51.404;-0.038;2022-08-18T12:12:55;25.30;99.90
46231;DHT22;31949;51.404;-0.038;2022-08-18T12:15:45;25.40;99.90
46231;DHT22;31949;51.404;-0.038;2022-08-18T12:18:15;25.00;99.90
46231;DHT22;31949;51.404;-0.038;2022-08-18T12:21:04;25.10;99.90
46231;DHT22;31949;51.404;-0.038;2022-08-18T12:23:32;25.10;99.90
46231;DHT22;31949;51.404;-0.038;2022-08-18T12:26:14;25.20;99.90
46231;DHT22;31949;51.404;-0.038;2022-08-18T12:28:53;25.40;99.50
46231;DHT22;31949;51.404;-0.038;2022-08-18T12:31:27;25.50;99.90
46231;DHT22;31949;51.404;-0.038;2022-08-18T12:34:23;25.60;99.80
46231;DHT22;31949;51.404;-0.038;2022-08-18T12:36:57;25.50;99.90
46231;DHT22;31949;51.404;-0.038;2022-08-18T12:39:28;25.40;99.90
46231;DHT22;31949;51.404;-0.038;2022-08-18T12:41:57;25.50;99.80
46231;DHT22;31949;51.404;-0.038;2022-08-18T12:44:26;25.60;99.70
46231;DHT22;31949;51.404;-0.038;2022-08-18T12:46:53;25.60;99.90
46231;DHT22;31949;51.404;-0.038;2022-08-18T12:49:23;25.70;99.40
46231;DHT22;31949;51.404;-0.038;2022-08-18T12:51:53;25.80;99.70
46231;DHT22;31949;51.404;-0.038;2022-08-18T12:54:21;25.90;99.50
46231;DHT22;31949;51.404;-0.038;2022-08-18T12:56:53;25.90;99.90
46231;DHT22;31949;51.404;-0.038;2022-08-18T12:59:22;25.80;99.90
46231;DHT22;31949;51.404;-0.038;2022-08-18T13:01:50;25.80;99.30
46231;DHT22;31949;51.404;-0.038;2022-08-18T13:04:25;25.90;99.10
46231;DHT22;31949;51.404;-0.038;2022-08-18T13:06:55;26.00;98.90
46231;DHT22;31949;51.404;-0.038;2022-08-18T13:09:32;26.10;98.50
46231;DHT22;31949;51.404;-0.038;2022-08-18T13:12:15;26.30;98.70
46231;DHT22;31949;51.404;-0.038;2022-08-18T13:14:44;26.40;98.60
46231;DHT22;31949;51.404;-0.038;2022-08-18T13:17:13;26.40;97.70
46231;DHT22;31949;51.404;-0.038;2022-08-18T13:20:00;26.60;97.40
46231;DHT22;31949;51.404;-0.038;2022-08-18T13:22:27;26.60;97.30
46231;DHT22;31949;51.404;-0.038;2022-08-18T13:25:00;26.80;96.60
46231;DHT22;31949;51.404;-0.038;2022-08-18T13:27:32;26.90;97.10
46231;DHT22;31949;51.404;-0.038;2022-08-18T13:30:08;27.20;96.70
46231;DHT22;31949;51.404;-0.038;2022-08-18T13:32:56;27.30;97.00
46231;DHT22;31949;51.404;-0.038;2022-08-18T13:35:26;27.10;96.70
46231;DHT22;31949;51.404;-0.038;2022-08-18T13:38:01;27.00;96.70
46231;DHT22;31949;51.404;-0.038;2022-08-18T13:40:49;27.00;96.60
46231;DHT22;31949;51.404;-0.038;2022-08-18T13:43:19;26.80;95.90
46231;DHT22;31949;51.404;-0.038;2022-08-18T13:45:49;27.00;96.40
46231;DHT22;31949;51.404;-0.038;2022-08-18T13:48:22;27.00;96.30
46231;DHT22;31949;51.404;-0.038;2022-08-18T13:50:52;27.10;96.70
46231;DHT22;31949;51.404;-0.038;2022-08-18T13:53:22;27.00;96.80
46231;DHT22;31949;51.404;-0.038;2022-08-18T13:55:49;27.00;96.10
46231;DHT22;31949;51.404;-0.038;2022-08-18T13:58:17;26.90;95.80
46231;DHT22;31949;51.404;-0.038;2022-08-18T14:00:49;26.90;95.70
46231;DHT22;31949;51.404;-0.038;2022-08-18T14:03:20;26.90;95.70
46231;DHT22;31949;51.404;-0.038;2022-08-18T14:06:10;26.90;96.00
46231;DHT22;31949;51.404;-0.038;2022-08-18T14:08:40;26.70;95.40
46231;DHT22;31949;51.404;-0.038;2022-08-18T14:11:08;26.70;96.40
46231;DHT22;31949;51.404;-0.038;2022-08-18T14:13:35;26.60;96.20
46231;DHT22;31949;51.404;-0.038;2022-08-18T14:16:10;26.60;96.50
46231;DHT22;31949;51.404;-0.038;2022-08-18T14:18:48;26.70;96.00
46231;DHT22;31949;51.404;-0.038;2022-08-18T14:21:47;26.90;96.40
46231;DHT22;31949;51.404;-0.038;2022-08-18T14:24:38;27.00;96.00
46231;DHT22;31949;51.404;-0.038;2022-08-18T14:27:34;27.10;95.80
46231;DHT22;31949;51.404;-0.038;2022-08-18T14:30:10;27.00;96.20
46231;DHT22;31949;51.404;-0.038;2022-08-18T14:32:40;27.20;96.20
46231;DHT22;31949;51.404;-0.038;2022-08-18T14:35:16;27.20;96.20
46231;DHT22;31949;51.404;-0.038;2022-08-18T14:38:01;27.30;96.00
46231;DHT22;31949;51.404;-0.038;2022-08-18T14:40:32;27.30;95.80
46231;DHT22;31949;51.404;-0.038;2022-08-18T14:43:00;27.20;96.10
46231;DHT22;31949;51.404;-0.038;2022-08-18T14:45:33;27.20;96.40
46231;DHT22;31949;51.404;-0.038;2022-08-18T14:48:05;27.20;96.50
46231;DHT22;31949;51.404;-0.038;2022-08-18T14:50:39;27.30;96.00
46231;DHT22;31949;51.404;-0.038;2022-08-18T14:53:16;27.40;96.40
46231;DHT22;31949;51.404;-0.038;2022-08-18T14:55:47;27.40;95.60
46231;DHT22;31949;51.404;-0.038;2022-08-18T14:58:19;27.30;95.40
46231;DHT22;31949;51.404;-0.038;2022-08-18T15:00:46;27.10;96.20
46231;DHT22;31949;51.404;-0.038;2022-08-18T15:03:25;27.20;95.60
46231;DHT22;31949;51.404;-0.038;2022-08-18T15:05:59;27.20;96.00
46231;DHT22;31949;51.404;-0.038;2022-08-18T15:08:35;27.20;96.30
46231;DHT22;31949;51.404;-0.038;2022-08-18T15:11:05;27.40;95.60
46231;DHT22;31949;51.404;-0.038;2022-08-18T15:13:39;27.20;95.60
46231;DHT22;31949;51.404;-0.038;2022-08-18T15:16:09;27.20;95.30
46231;DHT22;31949;51.404;-0.038;2022-08-18T15:18:41;27.20;95.30
46231;DHT22;31949;51.404;-0.038;2022-08-18T15:21:10;27.40;95.40
46231;DHT22;31949;51.404;-0.038;2022-08-18T15:24:06;27.30;95.00
46231;DHT22;31949;51.404;-0.038;2022-08-18T15:26:55;27.20;95.00
46231;DHT22;31949;51.404;-0.038;2022-08-18T15:29:32;27.10;95.00
46231;DHT22;31949;51.404;-0.038;2022-08-18T15:32:01;27.10;95.10
46231;DHT22;31949;51.404;-0.038;2022-08-18T15:34:36;27.10;94.80
46231;DHT22;31949;51.404;-0.038;2022-08-18T15:37:18;27.20;95.00
46231;DHT22;31949;51.404;-0.038;2022-08-18T15:39:59;27.30;94.90
46231;DHT22;31949;51.404;-0.038;2022-08-18T15:42:29;27.40;94.30
46231;DHT22;31949;51.404;-0.038;2022-08-18T15:45:00;27.40;94.50
46231;DHT22;31949;51.404;-0.038;2022-08-18T15:47:40;27.50;94.70
46231;DHT22;31949;51.404;-0.038;2022-08-18T15:50:10;27.40;94.00
46231;DHT22;31949;51.404;-0.038;2022-08-18T15:52:57;27.40;94.30
46231;DHT22;31949;51.404;-0.038;2022-08-18T15:55:26;27.30;94.20
46231;DHT22;31949;51.404;-0.038;2022-08-18T15:57:55;27.10;94.50
46231;DHT22;31949;51.404;-0.038;2022-08-18T16:00:26;26.90;94.80
46231;DHT22;31949;51.404;-0.038;2022-08-18T16:03:00;26.80;95.10
46231;DHT22;31949;51.404;-0.038;2022-08-18T16:05:31;26.70;95.20
46231;DHT22;31949;51.404;-0.038;2022-08-18T16:07:59;26.60;94.50
46231;DHT22;31949;51.404;-0.038;2022-08-18T16:10:30;26.60;94.50
46231;DHT22;31949;51.404;-0.038;2022-08-18T16:12:59;26.50;94.60
46231;DHT22;31949;51.404;-0.038;2022-08-18T16:15:27;26.30;94.80
46231;DHT22;31949;51.404;-0.038;2022-08-18T16:17:57;26.20;95.00
46231;DHT22;31949;51.404;-0.038;2022-08-18T16:20:25;26.10;95.60
46231;DHT22;31949;51.404;-0.038;2022-08-18T16:22:55;26.10;94.90
46231;DHT22;31949;51.404;-0.038;2022-08-18T16:25:26;26.20;95.00
46231;DHT22;31949;51.404;-0.038;2022-08-18T16:27:57;26.30;95.30
46231;DHT22;31949;51.404;-0.038;2022-08-18T16:30:26;26.20;95.50
46231;DHT22;31949;51.404;-0.038;2022-08-18T16:32:53;26.10;95.70
46231;DHT22;31949;51.404;-0.038;2022-08-18T16:35:21;26.10;95.50
46231;DHT22;31949;51.404;-0.038;2022-08-18T16:37:49;26.10;95.20
46231;DHT22;31949;51.404;-0.038;2022-08-18T16:40:17;26.10;94.90
46231;DHT22;31949;51.404;-0.038;2022-08-18T16:42:46;26.00;94.90
46231;DHT22;31949;51.404;-0.038;2022-08-18T16:45:20;26.00;95.00
46231;DHT22;31949;51.404;-0.038;2022-08-18T16:47:47;26.10;94.20
46231;DHT22;31949;51.404;-0.038;2022-08-18T16:50:16;26.10;94.40
46231;DHT22;31949;51.404;-0.038;2022-08-18T16:52:46;26.30;94.60
46231;DHT22;31949;51.404;-0.038;2022-08-18T16:55:13;26.30;94.30
46231;DHT22;31949;51.404;-0.038;2022-08-18T16:57:42;26.40;94.20
46231;DHT22;31949;51.404;-0.038;2022-08-18T17:00:30;26.30;94.30
46231;DHT22;31949;51.404;-0.038;2022-08-18T17:03:24;26.20;94.40
46231;DHT22;31949;51.404;-0.038;2022-08-18T17:06:15;26.20;94.50
46231;DHT22;31949;51.404;-0.038;2022-08-18T17:08:43;26.30;94.80
46231;DHT22;31949;51.404;-0.038;2022-08-18T17:11:14;26.30;94.70
46231;DHT22;31949;51.404;-0.038;2022-08-18T17:13:42;26.20;94.60
46231;DHT22;31949;51.404;-0.038;2022-08-18T17:16:10;26.20;94.70
46231;DHT22;31949;51.404;-0.038;2022-08-18T17:18:39;26.10;94.60
46231;DHT22;31949;51.404;-0.038;2022-08-18T17:21:10;26.10;94.50
46231;DHT22;31949;51.404;-0.038;2022-08-18T17:23:37;26.00;94.70
46231;DHT22;31949;51.404;-0.038;2022-08-18T17:26:21;26.00;94.60
46231;DHT22;31949;51.404;-0.038;2022-08-18T17:29:07;26.00;94.50
46231;DHT22;31949;51.404;-0.038;2022-08-18T17:31:36;25.90;94.50
46231;DHT22;31949;51.404;-0.038;2022-08-18T17:34:08;25.80;94.60
46231;DHT22;31949;51.404;-0.038;2022-08-18T17:36:52;25.80;94.70
46231;DHT22;31949;51.404;-0.038;2022-08-18T17:39:37;25.70;94.50
46231;DHT22;31949;51.404;-0.038;2022-08-18T17:42:06;25.70;94.80
46231;DHT22;31949;51.404;-0.038;2022-08-18T17:44:58;25.60;94.80
46231;DHT22;31949;51.404;-0.038;2022-08-18T17:47:56;25.70;94.70
46231;DHT22;31949;51.404;-0.038;2022-08-18T17:50:34;25.70;94.40
46231;DHT22;31949;51.404;-0.038;2022-08-18T17:53:23;25.60;94.60
46231;DHT22;31949;51.404;-0.038;2022-08-18T17:55:55;25.60;94.60
46231;DHT22;31949;51.404;-0.038;2022-08-18T17:58:35;25.60;96.60
46231;DHT22;31949;51.404;-0.038;2022-08-18T18:01:08;25.50;97.00
46231;DHT22;31949;51.404;-0.038;2022-08-18T18:03:36;25.30;97.40
46231;DHT22;31949;51.404;-0.038;2022-08-18T18:06:17;25.30;97.90
46231;DHT22;31949;51.404;-0.038;2022-08-18T18:08:59;25.20;98.00
46231;DHT22;31949;51.404;-0.038;2022-08-18T18:11:32;25.20;98.10
46231;DHT22;31949;51.404;-0.038;2022-08-18T18:14:34;25.10;98.00
46231;DHT22;31949;51.404;-0.038;2022-08-18T18:19:46;25.00;98.10
46231;DHT22;31949;51.404;-0.038;2022-08-18T18:22:18;24.90;98.20
46231;DHT22;31949;51.404;-0.038;2022-08-18T18:25:00;24.90;98.20
46231;DHT22;31949;51.404;-0.038;2022-08-18T18:30:07;24.70;98.30